Time;durP1;ratioP1;P1;durP2;ratioP2;P2;SDS_P1;SDS_P2;PMS_P1;PMS_P2;Temp;Humidity;BMP_temperature;BMP_pressure;BME280_temperature;BME280_humidity;BME280_pressure;Samples;Min_cycle;Max_cycle;Signal;HPM_P1;HPM_P2
2021/12/24 00:00:48;;;;;;;34.35;14.52;;;5.10;99.90;;;;;;4917736;29;20052;-66
2021/12/24 00:03:14;;;;;;;27.90;13.95;;;5.10;99.90;;;;;;4914298;29;20056;-66
2021/12/24 00:05:40;;;;;;;28.88;14.63;;;5.10;99.90;;;;;;4898410;29;20048;-66
2021/12/24 00:08:07;;;;;;;28.48;11.85;;;5.10;99.90;;;;;;4912524;29;20044;-66
2021/12/24 00:10:35;;;;;;;26.80;12.15;;;5.20;99.90;;;;;;4912143;29;20046;-66
2021/12/24 00:13:06;;;;;;;24.58;12.50;;;5.20;99.90;;;;;;4896687;29;20104;-66
2021/12/24 00:37:00;;;;;;;23.27;11.00;;;5.30;99.90;;;;;;4925995;29;20040;-66
2021/12/24 00:39:25;;;;;;;20.50;10.38;;;5.30;99.90;;;;;;4928537;29;20090;-66
2021/12/24 00:41:51;;;;;;;18.73;10.20;;;5.30;99.90;;;;;;4930211;29;20035;-66
2021/12/24 00:44:17;;;;;;;18.70;9.13;;;5.30;99.90;;;;;;4928066;29;20036;-66
2021/12/24 00:46:43;;;;;;;20.83;11.32;;;5.30;99.90;;;;;;4929326;29;20486;-66
2021/12/24 00:49:09;;;;;;;21.65;11.13;;;5.40;99.90;;;;;;4924019;29;20051;-66
2021/12/24 00:57:04;;;;;;;20.90;10.27;;;5.50;99.90;;;;;;4925287;29;20047;-66
2021/12/24 00:59:30;;;;;;;15.25;9.63;;;5.50;99.90;;;;;;4906325;29;20064;-66
2021/12/24 01:01:56;;;;;;;15.50;9.48;;;5.50;99.90;;;;;;4899460;29;20051;-66
2021/12/24 01:04:22;;;;;;;15.43;8.88;;;5.50;99.90;;;;;;4905427;29;20540;-66
2021/12/24 01:06:48;;;;;;;21.90;11.52;;;5.50;99.90;;;;;;4926027;29;20135;-66
2021/12/24 01:09:14;;;;;;;31.85;13.27;;;5.50;99.90;;;;;;4905446;29;20087;-66
2021/12/24 01:11:40;;;;;;;27.75;12.27;;;5.50;99.90;;;;;;4896148;29;20482;-67
2021/12/24 01:14:06;;;;;;;23.48;11.23;;;5.50;99.90;;;;;;4883069;29;20119;-66
2021/12/24 01:16:40;;;;;;;19.70;11.55;;;5.50;99.90;;;;;;4895328;29;20043;-66
2021/12/24 01:19:14;;;;;;;22.48;11.43;;;5.50;99.90;;;;;;4908634;29;20071;-66
2021/12/24 01:24:21;;;;;;;21.10;11.07;;;5.50;99.90;;;;;;4893989;29;20056;-66
2021/12/24 01:27:00;;;;;;;20.75;10.55;;;5.50;99.90;;;;;;4895801;29;20044;-66
2021/12/24 01:42:58;;;;;;;17.73;9.63;;;5.50;99.90;;;;;;4912075;29;20044;-66
2021/12/24 01:45:30;;;;;;;13.93;8.07;;;5.60;99.90;;;;;;4909733;29;20455;-66
2021/12/24 01:48:15;;;;;;;21.02;10.38;;;5.70;99.90;;;;;;4894400;29;20062;-66
2021/12/24 01:50:42;;;;;;;13.82;7.30;;;5.60;99.90;;;;;;4910763;29;20048;-66
2021/12/24 01:53:08;;;;;;;15.07;8.30;;;5.60;99.90;;;;;;4909955;29;20750;-66
2021/12/24 01:55:36;;;;;;;20.50;8.63;;;5.60;99.90;;;;;;4911601;29;20094;-66
2021/12/24 01:58:02;;;;;;;15.18;9.13;;;5.60;99.90;;;;;;4892273;29;20047;-67
2021/12/24 02:00:38;;;;;;;13.85;8.20;;;5.60;99.90;;;;;;4908507;29;20060;-66
2021/12/24 02:03:06;;;;;;;9.68;6.50;;;5.70;99.90;;;;;;4893265;29;20083;-66
2021/12/24 02:05:33;;;;;;;12.65;7.80;;;5.70;99.90;;;;;;4895104;29;20419;-67
2021/12/24 02:07:59;;;;;;;13.20;7.82;;;5.60;99.90;;;;;;4911318;29;20052;-66
2021/12/24 02:10:25;;;;;;;12.25;7.30;;;5.60;99.90;;;;;;4910454;29;20144;-66
2021/12/24 02:12:53;;;;;;;12.55;7.22;;;5.70;99.90;;;;;;4910662;29;20135;-66
2021/12/24 02:28:49;;;;;;;8.90;5.35;;;5.90;99.90;;;;;;4908883;29;20066;-67
2021/12/24 02:31:19;;;;;;;6.75;5.25;;;5.90;99.90;;;;;;4876598;29;20123;-66
2021/12/24 02:33:45;;;;;;;10.88;5.40;;;5.90;99.90;;;;;;4910925;29;20040;-66
2021/12/24 02:36:11;;;;;;;5.38;4.03;;;6.00;99.90;;;;;;4892517;29;20052;-66
2021/12/24 02:38:38;;;;;;;10.95;4.72;;;6.00;99.90;;;;;;4893840;29;20063;-66
2021/12/24 02:41:04;;;;;;;8.18;5.22;;;6.00;99.90;;;;;;4902722;29;20173;-66
2021/12/24 02:43:33;;;;;;;5.70;4.18;;;6.10;99.90;;;;;;4911608;29;20537;-66
2021/12/24 02:46:07;;;;;;;5.97;4.75;;;6.10;99.90;;;;;;4910002;29;20059;-66
2021/12/24 02:54:01;;;;;;;4.20;3.15;;;6.20;99.90;;;;;;4879805;29;20051;-66
2021/12/24 02:56:36;;;;;;;3.33;3.03;;;6.20;99.90;;;;;;4909668;29;20044;-67
2021/12/24 02:59:13;;;;;;;1.20;1.17;;;6.20;99.90;;;;;;4877003;29;20071;-66
2021/12/24 03:01:43;;;;;;;2.80;2.53;;;6.30;99.90;;;;;;4877953;29;20499;-66
2021/12/24 03:04:11;;;;;;;2.45;2.25;;;6.40;99.90;;;;;;4893731;29;20052;-66
2021/12/24 03:06:40;;;;;;;4.93;2.40;;;6.40;99.90;;;;;;4910151;29;20044;-66
2021/12/24 03:09:08;;;;;;;3.85;2.30;;;6.40;99.90;;;;;;4894155;29;20052;-66
2021/12/24 03:11:35;;;;;;;2.05;1.73;;;6.40;99.90;;;;;;4908635;29;20127;-66
2021/12/24 03:14:03;;;;;;;2.13;2.03;;;6.40;99.90;;;;;;4878616;29;20056;-66
2021/12/24 03:16:29;;;;;;;1.92;1.83;;;6.40;99.90;;;;;;4892398;29;20099;-67
2021/12/24 03:18:57;;;;;;;3.05;2.75;;;6.50;99.90;;;;;;4910370;29;20059;-66
2021/12/24 03:21:31;;;;;;;1.70;1.55;;;6.50;99.90;;;;;;4909655;29;20055;-66
2021/12/24 03:26:40;;;;;;;1.73;1.63;;;6.50;99.90;;;;;;4893185;29;20092;-66
2021/12/24 03:29:09;;;;;;;0.90;0.90;;;6.60;99.90;;;;;;4883219;29;20613;-66
2021/12/24 03:31:37;;;;;;;1.92;1.83;;;6.60;99.90;;;;;;4873433;29;20092;-66
2021/12/24 03:34:08;;;;;;;2.55;2.35;;;6.70;99.90;;;;;;4890746;29;20112;-66
2021/12/24 03:36:34;;;;;;;2.17;2.08;;;6.70;99.90;;;;;;4890830;29;20048;-66
2021/12/24 03:39:00;;;;;;;2.13;2.00;;;6.70;99.90;;;;;;4892411;29;20112;-66
2021/12/24 03:41:26;;;;;;;2.20;2.10;;;6.70;99.90;;;;;;4872239;29;20127;-67
2021/12/24 03:43:52;;;;;;;3.20;2.25;;;6.70;99.90;;;;;;4875296;29;20056;-67
2021/12/24 03:46:25;;;;;;;2.85;2.22;;;6.80;99.90;;;;;;4873154;29;20049;-66
2021/12/24 03:56:36;;;;;;;3.15;2.85;;;6.80;99.90;;;;;;4876641;29;20040;-66
2021/12/24 03:59:03;;;;;;;2.45;2.25;;;6.90;99.90;;;;;;4888737;29;20049;-67
2021/12/24 04:01:29;;;;;;;3.15;2.03;;;6.80;99.90;;;;;;4890901;29;20542;-67
2021/12/24 04:03:55;;;;;;;3.35;3.05;;;6.80;99.90;;;;;;4855921;29;20045;-66
2021/12/24 04:06:21;;;;;;;2.80;2.53;;;6.80;99.90;;;;;;4872652;29;20088;-67
2021/12/24 04:08:47;;;;;;;3.65;3.28;;;6.80;99.90;;;;;;4889848;29;20084;-66
2021/12/24 04:11:13;;;;;;;3.90;3.45;;;6.80;99.90;;;;;;4872557;29;20438;-66
2021/12/24 04:13:39;;;;;;;4.05;3.65;;;6.80;99.90;;;;;;4874168;29;20124;-66
2021/12/24 04:16:05;;;;;;;3.08;2.75;;;6.90;99.90;;;;;;4888590;29;20116;-67
2021/12/24 04:18:42;;;;;;;2.63;2.42;;;6.90;99.90;;;;;;4872580;29;20320;-66
2021/12/24 04:26:37;;;;;;;7.75;3.70;;;6.90;99.90;;;;;;4877128;29;20059;-66
2021/12/24 04:29:04;;;;;;;7.30;3.88;;;6.90;99.90;;;;;;4888849;29;20512;-66
2021/12/24 04:31:40;;;;;;;5.70;3.38;;;6.90;99.90;;;;;;4890730;29;20053;-66
2021/12/24 04:34:07;;;;;;;9.80;4.25;;;6.90;99.90;;;;;;4889025;29;20056;-66
2021/12/24 05:01:16;;;;;;;34.80;15.80;;;7.10;99.90;;;;;;4880330;29;20399;-66
2021/12/24 05:03:44;;;;;;;17.08;8.43;;;7.30;99.90;;;;;;4874279;29;20343;-67
2021/12/24 05:08:43;;;;;;;47.80;17.55;;;7.40;99.90;;;;;;4891714;29;20583;-66
2021/12/24 05:11:12;;;;;;;51.55;16.55;;;7.40;99.90;;;;;;4875711;29;20179;-66
2021/12/24 05:13:39;;;;;;;52.50;18.23;;;7.50;99.90;;;;;;4891616;29;20420;-66
2021/12/24 05:16:18;;;;;;;61.80;17.52;;;7.40;99.90;;;;;;4874594;29;20049;-66
2021/12/24 05:21:42;;;;;;;70.93;22.60;;;7.50;99.90;;;;;;4873586;29;20060;-67
2021/12/24 05:24:15;;;;;;;47.40;13.38;;;7.50;99.90;;;;;;4892728;29;20053;-66
2021/12/24 05:26:44;;;;;;;27.25;8.93;;;7.60;99.90;;;;;;4891829;29;20044;-66
2021/12/24 05:29:13;;;;;;;26.63;6.75;;;7.70;99.90;;;;;;4901963;29;20068;-66
2021/12/24 05:31:39;;;;;;;48.47;15.60;;;7.70;99.90;;;;;;4911109;29;20040;-67
2021/12/24 05:34:04;;;;;;;64.15;21.60;;;7.70;99.90;;;;;;4894034;29;20065;-67
2021/12/24 05:36:30;;;;;;;99.57;27.10;;;7.70;99.90;;;;;;4894600;29;20425;-66
2021/12/24 05:38:57;;;;;;;102.10;33.75;;;7.70;99.90;;;;;;4898168;29;20473;-66
2021/12/24 05:41:24;;;;;;;122.07;34.00;;;7.80;99.90;;;;;;4908447;29;20151;-66
2021/12/24 05:43:50;;;;;;;100.97;36.33;;;7.80;99.90;;;;;;4910974;29;20072;-66
2021/12/24 05:46:16;;;;;;;133.57;44.53;;;7.80;99.90;;;;;;4909923;29;20044;-66
2021/12/24 05:48:42;;;;;;;133.75;41.45;;;7.90;99.90;;;;;;4912197;29;20055;-67
2021/12/24 05:51:09;;;;;;;156.30;42.92;;;7.90;99.90;;;;;;4893711;29;20044;-66
2021/12/24 05:53:36;;;;;;;138.60;41.20;;;7.90;99.90;;;;;;4911196;29;20132;-67
2021/12/24 05:56:03;;;;;;;130.02;37.97;;;7.90;99.90;;;;;;4908928;29;20060;-66
2021/12/24 05:58:29;;;;;;;167.38;46.20;;;7.90;99.90;;;;;;4892581;29;20040;-67
2021/12/24 06:00:55;;;;;;;146.00;44.97;;;8.00;99.90;;;;;;4910713;29;20099;-66
2021/12/24 06:03:21;;;;;;;153.10;45.95;;;8.00;99.90;;;;;;4911580;29;20471;-66
2021/12/24 06:05:47;;;;;;;145.85;37.90;;;8.00;99.90;;;;;;4910908;29;20123;-67
2021/12/24 06:08:12;;;;;;;127.25;42.33;;;8.00;99.90;;;;;;4909423;29;20052;-66
2021/12/24 06:10:39;;;;;;;35.03;7.82;;;8.00;99.90;;;;;;4911206;29;20052;-66
2021/12/24 06:13:05;;;;;;;165.13;49.03;;;8.00;99.90;;;;;;4910595;29;20491;-67
2021/12/24 06:15:41;;;;;;;169.65;51.83;;;8.00;99.90;;;;;;4910614;29;20033;-66
2021/12/24 06:18:28;;;;;;;186.70;50.15;;;8.00;99.90;;;;;;4910017;29;20048;-66
2021/12/24 06:20:56;;;;;;;210.25;45.55;;;8.00;99.90;;;;;;4891633;29;20514;-66
2021/12/24 06:23:25;;;;;;;67.85;18.25;;;8.00;99.90;;;;;;4893954;29;20094;-67
2021/12/24 06:25:54;;;;;;;41.60;11.18;;;7.80;99.90;;;;;;4891746;29;20353;-67
2021/12/24 06:28:20;;;;;;;31.83;10.65;;;7.50;99.90;;;;;;4910994;29;20060;-67
2021/12/24 06:30:46;;;;;;;39.47;13.02;;;7.40;99.90;;;;;;4892985;29;20071;-66
2021/12/24 06:33:12;;;;;;;35.28;11.30;;;7.20;99.90;;;;;;4910719;29;20048;-66
2021/12/24 06:35:39;;;;;;;31.60;11.13;;;7.10;99.90;;;;;;4911078;29;20044;-66
2021/12/24 06:38:07;;;;;;;31.08;9.77;;;7.00;99.90;;;;;;4910232;29;20048;-66
2021/12/24 06:40:33;;;;;;;33.78;9.65;;;7.00;99.90;;;;;;4909433;29;20044;-66
2021/12/24 06:43:00;;;;;;;26.40;9.18;;;7.10;99.90;;;;;;4909659;29;20415;-66
2021/12/24 06:45:26;;;;;;;22.50;8.45;;;7.10;99.90;;;;;;4910351;29;20048;-66
2021/12/24 06:47:53;;;;;;;27.95;8.05;;;7.00;99.90;;;;;;4909518;29;20052;-67
2021/12/24 06:50:20;;;;;;;19.33;7.75;;;7.00;99.90;;;;;;4910022;29;20487;-66
2021/12/24 06:52:46;;;;;;;11.93;5.80;;;7.00;99.90;;;;;;4877794;29;20063;-66
2021/12/24 06:55:12;;;;;;;10.40;4.30;;;6.90;99.90;;;;;;4910730;29;20048;-66
2021/12/24 06:57:40;;;;;;;12.07;4.45;;;6.90;99.90;;;;;;4893234;29;20048;-66
2021/12/24 07:00:08;;;;;;;12.25;4.70;;;6.80;99.90;;;;;;4875101;29;20048;-66
2021/12/24 07:02:33;;;;;;;8.48;4.07;;;6.70;99.90;;;;;;4894027;29;20052;-66
2021/12/24 07:05:03;;;;;;;8.10;3.83;;;6.70;99.90;;;;;;4908332;29;20135;-66
2021/12/24 07:07:29;;;;;;;13.65;4.90;;;6.70;99.90;;;;;;4910948;29;20098;-66
2021/12/24 07:09:54;;;;;;;9.05;3.47;;;6.70;99.90;;;;;;4910284;29;20060;-66
2021/12/24 07:12:20;;;;;;;10.73;3.88;;;6.60;99.90;;;;;;4910083;29;20048;-66
2021/12/24 07:14:47;;;;;;;7.05;3.17;;;6.60;99.90;;;;;;4910880;29;20118;-66
2021/12/24 07:17:13;;;;;;;10.07;4.25;;;6.50;99.90;;;;;;4908925;29;20048;-66
2021/12/24 07:19:38;;;;;;;5.35;3.08;;;6.40;99.90;;;;;;4910830;29;20055;-67
2021/12/24 07:22:04;;;;;;;14.32;4.22;;;6.30;99.90;;;;;;4908835;29;20423;-66
2021/12/24 07:24:30;;;;;;;10.02;3.58;;;6.20;99.90;;;;;;4893814;29;20407;-66
2021/12/24 07:26:56;;;;;;;8.52;3.10;;;6.20;99.90;;;;;;4907998;29;20047;-66
2021/12/24 07:29:22;;;;;;;6.80;2.70;;;6.10;99.90;;;;;;4910008;29;20060;-66
2021/12/24 07:31:48;;;;;;;11.07;2.83;;;6.10;99.90;;;;;;4908338;29;20483;-67
2021/12/24 07:34:13;;;;;;;3.92;2.60;;;6.00;99.90;;;;;;4892436;29;20411;-66
2021/12/24 07:36:39;;;;;;;5.15;2.92;;;6.00;99.90;;;;;;4908831;29;20080;-66
2021/12/24 07:39:05;;;;;;;4.28;2.22;;;6.00;99.90;;;;;;4908388;29;20040;-67
2021/12/24 07:41:31;;;;;;;2.33;2.13;;;5.90;99.90;;;;;;4909495;29;20055;-66
2021/12/24 07:43:57;;;;;;;3.67;2.50;;;5.90;99.90;;;;;;4905805;29;20051;-66
2021/12/24 07:46:30;;;;;;;4.65;2.53;;;5.90;99.90;;;;;;4910486;29;20052;-66
2021/12/24 07:49:01;;;;;;;9.65;2.85;;;5.90;99.90;;;;;;4893039;29;20076;-66
2021/12/24 07:54:12;;;;;;;2.58;2.30;;;5.80;99.90;;;;;;4893798;29;20491;-66
2021/12/24 07:56:38;;;;;;;3.63;2.63;;;5.80;99.90;;;;;;4908823;29;20048;-66
2021/12/24 07:59:04;;;;;;;4.60;2.40;;;5.80;99.90;;;;;;4907615;29;20195;-67
2021/12/24 08:01:29;;;;;;;8.32;2.58;;;5.80;99.90;;;;;;4914043;29;20046;-66
2021/12/24 08:03:56;;;;;;;6.28;2.88;;;5.80;99.90;;;;;;4892065;29;20067;-66
2021/12/24 08:06:26;;;;;;;5.75;2.80;;;5.80;99.90;;;;;;4918904;29;20047;-66
2021/12/24 08:08:52;;;;;;;7.55;2.63;;;5.80;99.90;;;;;;4916249;29;20032;-67
2021/12/24 08:11:18;;;;;;;40.70;3.97;;;5.80;99.90;;;;;;4923452;29;20063;-66
2021/12/24 08:13:44;;;;;;;6.53;3.00;;;5.80;99.90;;;;;;4902851;29;20047;-66
2021/12/24 08:16:11;;;;;;;10.70;2.80;;;5.80;99.90;;;;;;4922922;29;20134;-66
2021/12/24 08:18:39;;;;;;;6.13;2.67;;;5.80;99.90;;;;;;4895766;29;20398;-66
2021/12/24 08:21:05;;;;;;;195.00;9.77;;;5.80;99.90;;;;;;4926659;29;20419;-66
2021/12/24 08:23:31;;;;;;;19.92;3.63;;;5.70;99.90;;;;;;4926374;29;20051;-66
2021/12/24 08:25:59;;;;;;;7.20;3.38;;;5.70;99.90;;;;;;4913176;29;20036;-67
2021/12/24 08:28:26;;;;;;;12.48;4.20;;;5.70;99.90;;;;;;4929492;29;20422;-66
2021/12/24 08:30:53;;;;;;;12.50;4.20;;;5.70;99.90;;;;;;4917783;29;20059;-66
2021/12/24 08:33:19;;;;;;;19.92;4.72;;;5.70;99.90;;;;;;4896271;29;20044;-66
2021/12/24 08:35:45;;;;;;;48.72;5.53;;;5.70;99.90;;;;;;4904743;29;20115;-66
2021/12/24 08:38:11;;;;;;;25.48;5.65;;;5.70;99.90;;;;;;4896372;29;20055;-66
2021/12/24 08:40:37;;;;;;;18.65;5.65;;;5.70;99.90;;;;;;4912843;29;20055;-66
2021/12/24 08:43:03;;;;;;;27.83;5.97;;;5.70;99.90;;;;;;4895639;29;20048;-68
2021/12/24 08:45:28;;;;;;;25.25;5.60;;;5.70;99.90;;;;;;4896660;29;20051;-66
2021/12/24 08:47:54;;;;;;;22.65;6.05;;;5.70;99.90;;;;;;4911401;29;20079;-66
2021/12/24 08:50:20;;;;;;;29.35;6.07;;;5.60;99.90;;;;;;4896623;29;20067;-66
2021/12/24 08:52:46;;;;;;;15.35;5.68;;;5.60;99.90;;;;;;4911226;29;20867;-66
2021/12/24 08:55:15;;;;;;;181.68;11.05;;;5.60;99.90;;;;;;4896750;29;20059;-66
2021/12/24 08:57:42;;;;;;;22.95;6.53;;;5.60;99.90;;;;;;4912250;29;20052;-66
2021/12/24 09:00:11;;;;;;;15.20;5.07;;;5.60;99.90;;;;;;4912568;29;20119;-66
2021/12/24 09:02:38;;;;;;;16.67;6.13;;;5.60;99.90;;;;;;4912999;29;20084;-66
2021/12/24 09:05:07;;;;;;;7.30;3.45;;;5.60;99.90;;;;;;4893389;29;20048;-67
2021/12/24 09:07:33;;;;;;;23.35;5.40;;;5.60;99.90;;;;;;4913931;29;20168;-68
2021/12/24 09:09:59;;;;;;;11.45;4.97;;;5.50;99.90;;;;;;4910883;29;20637;-67
2021/12/24 09:12:25;;;;;;;15.75;6.07;;;5.50;99.90;;;;;;4879956;29;20048;-68
2021/12/24 09:14:53;;;;;;;6.20;4.10;;;5.50;99.90;;;;;;4894939;29;20666;-67
2021/12/24 09:17:21;;;;;;;10.23;3.83;;;5.50;99.90;;;;;;4895530;29;20052;-66
2021/12/24 09:19:50;;;;;;;15.38;3.85;;;5.50;99.90;;;;;;4912864;29;20044;-67
2021/12/24 09:22:18;;;;;;;3.40;3.00;;;5.40;99.90;;;;;;4910068;29;20052;-68
2021/12/24 09:24:50;;;;;;;15.13;3.83;;;5.40;99.90;;;;;;4916814;29;20043;-67
2021/12/24 09:27:16;;;;;;;7.53;3.85;;;5.40;99.90;;;;;;4894132;29;20048;-68
2021/12/24 09:29:42;;;;;;;6.97;4.50;;;5.30;99.90;;;;;;4926897;29;20095;-66
2021/12/24 09:32:09;;;;;;;4.18;3.80;;;5.30;99.90;;;;;;4925004;29;20048;-66
2021/12/24 09:34:35;;;;;;;8.75;4.07;;;5.30;99.90;;;;;;4900413;29;20568;-66
2021/12/24 09:37:00;;;;;;;4.60;3.75;;;5.30;99.90;;;;;;4910709;29;20063;-66
2021/12/24 09:39:26;;;;;;;5.60;3.60;;;5.20;99.90;;;;;;4907549;29;20052;-66
2021/12/24 09:41:52;;;;;;;4.63;4.05;;;5.20;99.90;;;;;;4910373;29;20436;-66
2021/12/24 09:44:18;;;;;;;30.70;5.95;;;5.20;99.90;;;;;;4907936;29;20542;-66
2021/12/24 09:46:44;;;;;;;5.60;4.05;;;5.20;99.90;;;;;;4895095;29;20127;-66
2021/12/24 09:49:11;;;;;;;10.23;4.10;;;5.20;99.90;;;;;;4909836;29;20317;-66
2021/12/24 09:51:43;;;;;;;4.55;3.20;;;5.10;99.90;;;;;;4903734;29;20052;-66
2021/12/24 09:54:16;;;;;;;5.28;3.70;;;5.10;99.90;;;;;;4874486;29;20055;-66
2021/12/24 09:56:43;;;;;;;5.47;3.63;;;5.00;99.90;;;;;;4896195;29;20055;-66
2021/12/24 09:59:09;;;;;;;417.83;17.85;;;5.00;99.90;;;;;;4903664;29;20040;-66
2021/12/24 10:01:46;;;;;;;4.15;3.85;;;5.00;99.90;;;;;;4903292;29;20408;-66
2021/12/24 10:04:16;;;;;;;6.68;4.53;;;4.90;99.90;;;;;;4887298;29;20055;-65
2021/12/24 10:07:03;;;;;;;6.97;4.40;;;4.90;99.90;;;;;;4910930;29;20515;-66
2021/12/24 10:09:38;;;;;;;4.18;3.78;;;4.90;99.90;;;;;;4909616;29;20044;-66
2021/12/24 10:12:10;;;;;;;7.53;4.28;;;4.90;99.90;;;;;;4913514;29;20043;-66
2021/12/24 10:14:46;;;;;;;5.13;4.60;;;4.90;99.90;;;;;;4924249;29;20071;-65
2021/12/24 10:17:16;;;;;;;7.53;4.78;;;4.90;99.90;;;;;;4918591;29;20365;-65
2021/12/24 10:19:44;;;;;;;9.45;4.90;;;4.90;99.90;;;;;;4926281;29;20116;-65
2021/12/24 10:22:11;;;;;;;8.00;4.90;;;4.90;99.90;;;;;;4910739;29;20052;-66
2021/12/24 10:24:37;;;;;;;8.75;4.47;;;4.90;99.90;;;;;;4925281;29;20047;-66
2021/12/24 10:27:03;;;;;;;10.60;5.22;;;4.90;99.90;;;;;;4905430;29;20096;-65
2021/12/24 10:29:33;;;;;;;12.10;5.70;;;4.90;99.90;;;;;;4908122;29;20134;-66
2021/12/24 10:32:12;;;;;;;10.90;5.63;;;4.90;99.90;;;;;;4898562;29;20055;-66
2021/12/24 10:34:39;;;;;;;9.80;5.30;;;4.90;99.90;;;;;;4886749;29;20135;-66
2021/12/24 10:37:07;;;;;;;9.20;5.03;;;4.90;99.90;;;;;;4892994;29;20053;-66
2021/12/24 10:39:40;;;;;;;7.22;5.20;;;4.90;99.90;;;;;;4892705;29;20087;-65
2021/12/24 10:42:13;;;;;;;6.28;4.55;;;4.90;99.90;;;;;;4889976;29;20083;-65
2021/12/24 10:44:41;;;;;;;11.00;4.88;;;4.90;99.90;;;;;;4907868;29;20043;-65
2021/12/24 10:47:12;;;;;;;7.95;5.28;;;4.90;99.90;;;;;;4920206;29;20059;-65
2021/12/24 10:52:56;;;;;;;8.88;5.47;;;4.90;99.90;;;;;;4924234;29;20047;-66
2021/12/24 10:55:53;;;;;;;8.02;5.40;;;4.80;99.90;;;;;;4906699;29;20059;-66
2021/12/24 10:58:22;;;;;;;8.10;4.93;;;4.90;99.90;;;;;;4901308;29;20059;-66
2021/12/24 11:00:50;;;;;;;10.43;5.65;;;4.80;99.90;;;;;;4900100;29;20056;-65
2021/12/24 11:03:25;;;;;;;9.55;5.13;;;4.80;99.90;;;;;;4892905;29;20442;-66
2021/12/24 11:06:08;;;;;;;6.05;5.05;;;4.80;99.90;;;;;;4892601;29;20534;-65
2021/12/24 11:08:35;;;;;;;6.97;4.55;;;4.80;99.90;;;;;;4893173;29;20052;-65
2021/12/24 11:11:04;;;;;;;7.43;4.95;;;4.80;99.90;;;;;;4891576;29;20040;-65
2021/12/24 11:13:38;;;;;;;6.20;4.63;;;4.80;99.90;;;;;;4894131;29;20048;-65
2021/12/24 11:16:06;;;;;;;7.05;5.00;;;4.80;99.90;;;;;;4892382;29;20059;-65
2021/12/24 11:18:45;;;;;;;10.13;4.88;;;4.90;99.90;;;;;;4906635;29;20035;-66
2021/12/24 11:21:20;;;;;;;8.93;4.97;;;4.90;99.90;;;;;;4908334;29;20146;-65
2021/12/24 11:23:47;;;;;;;6.70;4.63;;;4.90;99.90;;;;;;4877785;29;20447;-65
2021/12/24 11:26:19;;;;;;;8.50;4.15;;;5.00;99.90;;;;;;4910143;29;20073;-65
2021/12/24 11:28:46;;;;;;;8.05;4.10;;;5.00;99.90;;;;;;4899874;29;20495;-65
2021/12/24 11:31:22;;;;;;;6.22;4.40;;;4.90;99.90;;;;;;4916363;29;20131;-65
2021/12/24 11:33:49;;;;;;;5.90;4.35;;;4.90;99.90;;;;;;4919855;29;20390;-65
2021/12/24 11:36:43;;;;;;;4.43;4.03;;;4.90;99.90;;;;;;4917604;29;20035;-65
2021/12/24 11:39:10;;;;;;;5.03;4.57;;;4.90;99.90;;;;;;4910134;29;20063;-66
2021/12/24 11:41:38;;;;;;;4.85;4.35;;;4.90;99.90;;;;;;4920732;29;20139;-65
2021/12/24 11:44:07;;;;;;;5.47;4.43;;;4.90;99.90;;;;;;4897879;29;20052;-65
2021/12/24 11:46:34;;;;;;;4.70;4.30;;;4.90;99.90;;;;;;4924225;29;20533;-65
2021/12/24 11:49:00;;;;;;;5.28;4.00;;;4.90;99.90;;;;;;4918831;29;20044;-66
2021/12/24 11:51:28;;;;;;;4.93;4.25;;;5.00;99.90;;;;;;4924436;29;20043;-65
2021/12/24 11:54:00;;;;;;;6.03;4.60;;;5.00;99.90;;;;;;4927494;29;20389;-65
2021/12/24 11:56:26;;;;;;;4.70;4.20;;;5.00;99.90;;;;;;4919121;29;20214;-65
2021/12/24 11:58:58;;;;;;;7.63;4.70;;;5.00;99.90;;;;;;4911599;29;20080;-66
2021/12/24 12:01:36;;;;;;;6.13;4.13;;;5.00;99.90;;;;;;4895588;29;20048;-66
2021/12/24 12:04:15;;;;;;;4.57;4.13;;;5.00;99.90;;;;;;4909132;29;20423;-65
2021/12/24 12:06:41;;;;;;;5.72;4.03;;;5.10;99.90;;;;;;4912663;29;20036;-65
2021/12/24 12:09:12;;;;;;;4.72;4.18;;;5.10;99.90;;;;;;4902149;29;20048;-66
2021/12/24 12:11:41;;;;;;;5.18;4.65;;;5.10;99.90;;;;;;4892441;29;20108;-66
2021/12/24 12:14:17;;;;;;;4.65;4.25;;;5.10;99.90;;;;;;4905306;29;20495;-66
2021/12/24 12:16:47;;;;;;;6.35;4.55;;;5.20;99.90;;;;;;4922376;29;20514;-65
2021/12/24 12:25:03;;;;;;;4.63;4.18;;;5.20;99.90;;;;;;4924204;29;20756;-66
2021/12/24 12:27:56;;;;;;;4.68;3.92;;;5.30;99.90;;;;;;4927762;29;20091;-65
2021/12/24 12:30:23;;;;;;;4.00;3.70;;;5.30;99.90;;;;;;4884309;29;20063;-65
2021/12/24 12:32:51;;;;;;;4.15;3.85;;;5.40;99.90;;;;;;4905450;29;20418;-65
2021/12/24 12:35:17;;;;;;;4.18;3.78;;;5.30;99.90;;;;;;4928096;29;20043;-65
2021/12/24 12:37:54;;;;;;;4.90;3.60;;;5.40;99.90;;;;;;4927710;29;20043;-65
2021/12/24 12:40:20;;;;;;;5.63;3.83;;;5.30;99.90;;;;;;4917802;29;20039;-65
2021/12/24 12:42:49;;;;;;;4.00;3.70;;;5.30;99.90;;;;;;4910582;29;20098;-65
2021/12/24 12:45:17;;;;;;;3.72;3.50;;;5.30;99.90;;;;;;4918110;29;20102;-65
2021/12/24 12:47:57;;;;;;;7.55;3.50;;;5.30;99.90;;;;;;4927526;29;20036;-65
2021/12/24 12:50:23;;;;;;;;;;;5.30;99.90;;;;;;4904278;29;20055;-65
2021/12/24 12:52:53;;;;;;;4.13;3.65;;;5.40;99.90;;;;;;4905984;29;19923;-65
2021/12/24 12:55:33;;;;;;;4.28;3.50;;;5.40;99.90;;;;;;4927558;29;20128;-65
2021/12/24 12:58:23;;;;;;;8.30;3.78;;;5.50;99.90;;;;;;4917478;29;20557;-65
2021/12/24 13:01:03;;;;;;;4.93;3.95;;;5.50;99.90;;;;;;4921490;29;20408;-65
2021/12/24 13:03:30;;;;;;;3.78;3.47;;;5.50;99.90;;;;;;4922108;29;20051;-66
2021/12/24 13:06:02;;;;;;;3.83;3.40;;;5.60;99.90;;;;;;4920217;29;20035;-65
2021/12/24 13:08:34;;;;;;;4.45;3.40;;;5.60;99.90;;;;;;4909465;29;20043;-65
2021/12/24 13:11:23;;;;;;;5.45;3.33;;;5.60;99.90;;;;;;4909069;29;20067;-65
2021/12/24 13:13:55;;;;;;;3.13;2.97;;;5.60;99.90;;;;;;4915701;29;20130;-65
2021/12/24 13:16:24;;;;;;;4.35;3.33;;;5.60;99.90;;;;;;4892648;29;20044;-67
2021/12/24 13:18:58;;;;;;;3.90;2.70;;;5.50;99.90;;;;;;4912387;29;20051;-66
2021/12/24 13:24:14;;;;;;;4.85;3.25;;;5.50;99.90;;;;;;4914939;29;20063;-66
2021/12/24 13:26:40;;;;;;;;;;;5.60;99.90;;;;;;4914911;29;20387;-66
2021/12/24 13:29:12;;;;;;;;;;;5.60;99.90;;;;;;4908808;29;19946;-66
2021/12/24 13:31:39;;;;;;;;;;;5.60;99.90;;;;;;4923314;29;19923;-66
2021/12/24 13:34:08;;;;;;;;;;;5.60;99.90;;;;;;4915469;29;19922;-66
2021/12/24 13:36:34;;;;;;;;;;;5.60;99.90;;;;;;4894118;29;19930;-66
2021/12/24 13:39:10;;;;;;;;;;;5.60;99.90;;;;;;4890156;29;19927;-66
2021/12/24 13:41:36;;;;;;;;;;;5.60;99.90;;;;;;4910045;29;20472;-66
2021/12/24 13:44:02;;;;;;;;;;;5.60;99.90;;;;;;4924022;29;19931;-66
2021/12/24 13:46:32;;;;;;;;;;;5.60;99.90;;;;;;4907211;29;19929;-66
2021/12/24 13:56:43;;;;;;;;;;;5.60;99.90;;;;;;4909652;29;20342;-66
2021/12/24 13:59:09;;;;;;;;;;;5.60;99.90;;;;;;4923826;29;19934;-66
2021/12/24 14:01:35;;;;;;;;;;;5.60;99.90;;;;;;4919545;29;20539;-66
2021/12/24 14:04:01;;;;;;;;;;;5.60;99.90;;;;;;4910221;29;19974;-66
2021/12/24 14:06:35;;;;;;;;;;;5.60;99.90;;;;;;4918465;29;19982;-66
2021/12/24 14:09:08;;;;;;;;;;;5.60;99.90;;;;;;4889607;29;20363;-66
2021/12/24 14:11:36;;;;;;;;;;;5.60;99.90;;;;;;4906241;29;20456;-66
2021/12/24 14:14:07;;;;;;;;;;;5.60;99.90;;;;;;4912080;29;19923;-66
2021/12/24 14:16:55;;;;;;;;;;;5.60;99.90;;;;;;4910564;29;19923;-66
2021/12/24 14:19:31;;;;;;;;;;;5.60;99.90;;;;;;4909938;29;20382;-66
2021/12/24 14:22:06;;;;;;;;;;;5.50;99.90;;;;;;4911488;29;19930;-66
2021/12/24 14:24:36;;;;;;;;;;;5.50;99.90;;;;;;4892427;29;19962;-66
2021/12/24 14:27:01;;;;;;;;;;;5.50;99.90;;;;;;4911621;29;20398;-66
2021/12/24 14:29:30;;;;;;;;;;;5.50;99.90;;;;;;4892003;29;20013;-66
2021/12/24 14:32:04;;;;;;;;;;;5.50;99.90;;;;;;4895269;29;19927;-66
2021/12/24 14:34:35;;;;;;;;;;;5.50;99.90;;;;;;4910961;29;19927;-66
2021/12/24 14:37:03;;;;;;;;;;;5.50;99.90;;;;;;4911112;29;19919;-66
2021/12/24 14:39:35;;;;;;;;;;;5.50;99.90;;;;;;4911001;29;19923;-66
2021/12/24 14:42:11;;;;;;;;;;;5.50;99.90;;;;;;4877294;29;19927;-66
2021/12/24 14:44:37;;;;;;;;;;;5.50;99.90;;;;;;4911341;29;19930;-66
2021/12/24 14:47:03;;;;;;;;;;;5.50;99.90;;;;;;4910165;29;19931;-67
2021/12/24 14:49:36;;;;;;;;;;;5.50;99.90;;;;;;4894245;29;20398;-66
2021/12/24 14:52:17;;;;;;;;;;;5.40;99.90;;;;;;4901903;29;20018;-66
2021/12/24 14:55:01;;;;;;;;;;;5.40;99.90;;;;;;4907253;29;19927;-66
2021/12/24 14:57:27;;;;;;;;;;;5.40;99.90;;;;;;4908359;29;20386;-66
2021/12/24 14:59:52;;;;;;;;;;;5.40;99.90;;;;;;4890189;29;19946;-66
2021/12/24 15:02:19;;;;;;;;;;;5.30;99.90;;;;;;4901573;29;19927;-66
2021/12/24 15:04:54;;;;;;;;;;;5.20;99.90;;;;;;4907695;29;20618;-66
2021/12/24 15:07:19;;;;;;;;;;;5.10;99.90;;;;;;4895715;29;19923;-67
2021/12/24 15:09:46;;;;;;;;;;;5.00;99.90;;;;;;4892035;29;19946;-67
2021/12/24 15:12:15;;;;;;;;;;;5.00;99.90;;;;;;4907780;29;19962;-67
2021/12/24 15:14:41;;;;;;;;;;;4.90;99.90;;;;;;4909570;29;19922;-67
2021/12/24 15:17:07;;;;;;;;;;;4.80;99.90;;;;;;4892466;29;19934;-66
2021/12/24 15:19:33;;;;;;;;;;;4.80;99.90;;;;;;4926310;29;20346;-66
2021/12/24 15:21:58;;;;;;;;;;;4.70;99.90;;;;;;4918185;29;20619;-66